GOL1823 SBRJ-SBRF
Flight info
| Callsign | GOL1823 |
|---|---|
| Flight time | N/A |
| Altitude | 35000 |
| Route | IMBAP UZ42 ANBEX |
| Aircraft | B738/M-SDE2E3FGHIRWXY/LB1 |
Departure
| Time | 2026-05-01 09:17 |
|---|---|
| Airport | Santos Dumont Airport (SBRJ) |
Arrival
| Time | N/A |
|---|---|
| Airport | Recife/Guararapes - Gilberto Freyre International Airport (SBRF) |
| Time | Latitude | Longitude | Altitude | Speed | Heading |
|---|---|---|---|---|---|
| 2026-05-01 08:22 | -22.91098 | -43.16587 | 21 ft | 0 kts | 266° |
| 2026-05-01 09:07 | -22.91098 | -43.16586 | 21 ft | 2 kts | 266° |
| 2026-05-01 09:07 | -22.91094 | -43.16559 | 8 ft | 4 kts | 246° |
| 2026-05-01 09:07 | -22.91080 | -43.16538 | 26 ft | 4 kts | 198° |
| 2026-05-01 09:07 | -22.91067 | -43.16536 | 26 ft | 0 kts | 166° |
| 2026-05-01 09:12 | -22.91068 | -43.16536 | 21 ft | 1 kts | 166° |
| 2026-05-01 09:12 | -22.91107 | -43.16525 | 21 ft | 10 kts | 165° |
| 2026-05-01 09:13 | -22.91175 | -43.16515 | 21 ft | 10 kts | 174° |
| 2026-05-01 09:13 | -22.91243 | -43.16510 | 21 ft | 10 kts | 178° |
| 2026-05-01 09:13 | -22.91309 | -43.16508 | 21 ft | 9 kts | 176° |
| 2026-05-01 09:13 | -22.91373 | -43.16503 | 21 ft | 9 kts | 175° |
| 2026-05-01 09:14 | -22.91428 | -43.16476 | 21 ft | 9 kts | 136° |
| 2026-05-01 09:14 | -22.91476 | -43.16427 | 21 ft | 10 kts | 136° |
| 2026-05-01 09:14 | -22.91531 | -43.16371 | 19 ft | 12 kts | 136° |
| 2026-05-01 09:14 | -22.91594 | -43.16302 | 20 ft | 13 kts | 125° |
| 2026-05-01 09:15 | -22.91573 | -43.16249 | 19 ft | 0 kts | 5° |
| 2026-05-01 09:15 | -22.91573 | -43.16250 | 19 ft | 0 kts | 2° |
| 2026-05-01 09:16 | -22.91332 | -43.16265 | 19 ft | 74 kts | 356° |
| 2026-05-01 09:17 | -22.89496 | -43.16375 | 358 ft | 170 kts | 357° |
| 2026-05-01 09:17 | -22.88177 | -43.16436 | 530 ft | 214 kts | 356° |
| 2026-05-01 09:17 | -22.85300 | -43.15108 | 1559 ft | 246 kts | 65° |
| 2026-05-01 09:18 | -22.85063 | -43.13357 | 2737 ft | 234 kts | 103° |
| 2026-05-01 09:18 | -22.86460 | -43.10321 | 4323 ft | 226 kts | 114° |
| 2026-05-01 09:19 | -22.87642 | -43.07123 | 5029 ft | 232 kts | 110° |
| 2026-05-01 09:19 | -22.88177 | -43.05481 | 5059 ft | 229 kts | 109° |
| 2026-05-01 09:19 | -22.88549 | -43.03800 | 5054 ft | 230 kts | 90° |
| 2026-05-01 09:20 | -22.88252 | -43.00338 | 5075 ft | 232 kts | 86° |
| 2026-05-01 09:20 | -22.87993 | -42.96832 | 5057 ft | 234 kts | 86° |
| 2026-05-01 09:21 | -22.87729 | -42.93330 | 5050 ft | 233 kts | 86° |
| 2026-05-01 09:21 | -22.87600 | -42.91582 | 5058 ft | 231 kts | 86° |
| 2026-05-01 09:21 | -22.87320 | -42.88106 | 5285 ft | 241 kts | 86° |
| 2026-05-01 09:22 | -22.86776 | -42.84476 | 6568 ft | 241 kts | 58° |
| 2026-05-01 09:22 | -22.83908 | -42.82554 | 7296 ft | 269 kts | 13° |
| 2026-05-01 09:23 | -22.82019 | -42.82151 | 7661 ft | 282 kts | 11° |
| 2026-05-01 09:23 | -22.78094 | -42.81401 | 8905 ft | 288 kts | 11° |
| 2026-05-01 09:24 | -22.74142 | -42.80641 | 10171 ft | 293 kts | 10° |
| 2026-05-01 09:24 | -22.72073 | -42.80237 | 10507 ft | 307 kts | 10° |
| 2026-05-01 09:24 | -22.67615 | -42.79356 | 10797 ft | 346 kts | 10° |
| 2026-05-01 09:25 | -22.62637 | -42.78364 | 11070 ft | 379 kts | 10° |
| 2026-05-01 09:25 | -22.57385 | -42.77315 | 11886 ft | 389 kts | 9° |
| 2026-05-01 09:26 | -22.54681 | -42.76774 | 12395 ft | 391 kts | 9° |
| 2026-05-01 09:26 | -22.49269 | -42.75692 | 13262 ft | 399 kts | 9° |
| 2026-05-01 09:26 | -22.46565 | -42.75151 | 13729 ft | 401 kts | 9° |
| 2026-05-01 09:27 | -22.41037 | -42.74046 | 14542 ft | 406 kts | 9° |
| 2026-05-01 09:27 | -22.38255 | -42.73490 | 14920 ft | 408 kts | 9° |
| 2026-05-01 09:27 | -22.35456 | -42.72931 | 15251 ft | 411 kts | 8° |
| 2026-05-01 09:28 | -22.32638 | -42.72369 | 15671 ft | 412 kts | 8° |
| 2026-05-01 09:28 | -22.29816 | -42.71807 | 16009 ft | 414 kts | 8° |
| 2026-05-01 09:28 | -22.26987 | -42.71251 | 16339 ft | 416 kts | 8° |
| 2026-05-01 09:28 | -22.24106 | -42.70675 | 16684 ft | 419 kts | 8° |
| 2026-05-01 09:29 | -22.18377 | -42.69528 | 17371 ft | 423 kts | 8° |
| 2026-05-01 09:29 | -22.15473 | -42.68950 | 17715 ft | 426 kts | 8° |
| 2026-05-01 09:30 | -22.09624 | -42.67784 | 18429 ft | 429 kts | 8° |
| 2026-05-01 09:30 | -22.06674 | -42.67198 | 18698 ft | 432 kts | 8° |
| 2026-05-01 09:30 | -22.00731 | -42.66017 | 19251 ft | 436 kts | 8° |
| 2026-05-01 09:31 | -21.97741 | -42.65423 | 19533 ft | 437 kts | 8° |
| 2026-05-01 09:31 | -21.94737 | -42.64827 | 19821 ft | 439 kts | 8° |
| 2026-05-01 09:31 | -21.88699 | -42.63629 | 20347 ft | 443 kts | 8° |
| 2026-05-01 09:32 | -21.85667 | -42.63028 | 20624 ft | 444 kts | 8° |
| 2026-05-01 09:32 | -21.79603 | -42.61826 | 21178 ft | 447 kts | 8° |
| 2026-05-01 09:32 | -21.76538 | -42.61219 | 21426 ft | 449 kts | 8° |
| 2026-05-01 09:33 | -21.73466 | -42.60611 | 21676 ft | 450 kts | 8° |
| 2026-05-01 09:33 | -21.70366 | -42.59998 | 21926 ft | 452 kts | 8° |
| 2026-05-01 09:33 | -21.64165 | -42.58684 | 22414 ft | 457 kts | 14° |
| 2026-05-01 09:34 | -21.61162 | -42.57502 | 22643 ft | 461 kts | 24° |
| 2026-05-01 09:34 | -21.58307 | -42.55888 | 22908 ft | 463 kts | 27° |
| 2026-05-01 09:34 | -21.52680 | -42.52562 | 23341 ft | 467 kts | 27° |
| 2026-05-01 09:35 | -21.49826 | -42.50881 | 23555 ft | 468 kts | 27° |
| 2026-05-01 09:35 | -21.44073 | -42.47534 | 23946 ft | 471 kts | 27° |
| 2026-05-01 09:35 | -21.41182 | -42.45867 | 24127 ft | 472 kts | 26° |
| 2026-05-01 09:36 | -21.38281 | -42.44199 | 24300 ft | 474 kts | 26° |
| 2026-05-01 09:36 | -21.35373 | -42.42531 | 24476 ft | 475 kts | 26° |
| 2026-05-01 09:36 | -21.32452 | -42.40855 | 24651 ft | 476 kts | 26° |
| 2026-05-01 09:36 | -21.29525 | -42.39176 | 24808 ft | 478 kts | 26° |
| 2026-05-01 09:37 | -21.26589 | -42.37493 | 24977 ft | 479 kts | 26° |
| 2026-05-01 09:37 | -21.20736 | -42.34138 | 25349 ft | 480 kts | 26° |
| 2026-05-01 09:37 | -21.17779 | -42.32445 | 25507 ft | 482 kts | 26° |
| 2026-05-01 09:38 | -21.11840 | -42.29045 | 25822 ft | 485 kts | 26° |
| 2026-05-01 09:38 | -21.08862 | -42.27341 | 25980 ft | 486 kts | 26° |
| 2026-05-01 09:38 | -21.05871 | -42.25631 | 26133 ft | 487 kts | 26° |
| 2026-05-01 09:39 | -20.99910 | -42.22224 | 26488 ft | 488 kts | 26° |
| 2026-05-01 09:39 | -20.96907 | -42.20510 | 26639 ft | 489 kts | 26° |
| 2026-05-01 09:39 | -20.93900 | -42.18792 | 26787 ft | 491 kts | 26° |
| 2026-05-01 09:40 | -20.90884 | -42.17069 | 26931 ft | 492 kts | 26° |
| 2026-05-01 09:40 | -20.84830 | -42.13619 | 27216 ft | 494 kts | 26° |
| 2026-05-01 09:40 | -20.81792 | -42.11889 | 27397 ft | 494 kts | 26° |
| 2026-05-01 09:41 | -20.78765 | -42.10166 | 27574 ft | 494 kts | 26° |
| 2026-05-01 09:41 | -20.72679 | -42.06703 | 27800 ft | 497 kts | 26° |
| 2026-05-01 09:41 | -20.69620 | -42.04962 | 27943 ft | 498 kts | 26° |
| 2026-05-01 09:42 | -20.66564 | -42.03224 | 28156 ft | 497 kts | 26° |
| 2026-05-01 09:42 | -20.63514 | -42.01491 | 28390 ft | 495 kts | 26° |
| 2026-05-01 09:42 | -20.57517 | -41.98002 | 28871 ft | 493 kts | 28° |
| 2026-05-01 09:43 | -20.51537 | -41.94402 | 29206 ft | 494 kts | 28° |
| 2026-05-01 09:43 | -20.48539 | -41.92597 | 29402 ft | 493 kts | 28° |
| 2026-05-01 09:43 | -20.45546 | -41.90801 | 29638 ft | 493 kts | 28° |
| 2026-05-01 09:44 | -20.39606 | -41.87253 | 30089 ft | 491 kts | 28° |
| 2026-05-01 09:44 | -20.36625 | -41.85477 | 30322 ft | 490 kts | 28° |
| 2026-05-01 09:44 | -20.33647 | -41.83704 | 30493 ft | 490 kts | 28° |
| 2026-05-01 09:45 | -20.30669 | -41.81932 | 30656 ft | 490 kts | 28° |
| 2026-05-01 09:45 | -20.24768 | -41.78421 | 30986 ft | 490 kts | 28° |
| 2026-05-01 09:45 | -20.21788 | -41.76649 | 31177 ft | 490 kts | 28° |
| 2026-05-01 09:46 | -20.16868 | -41.73724 | 31462 ft | 489 kts | 28° |
| 2026-05-01 09:46 | -20.13890 | -41.71954 | 31684 ft | 489 kts | 28° |
| 2026-05-01 09:46 | -20.10916 | -41.70189 | 31859 ft | 489 kts | 28° |
| 2026-05-01 09:47 | -20.07946 | -41.68429 | 32015 ft | 489 kts | 28° |
| 2026-05-01 09:47 | -20.04971 | -41.66669 | 32186 ft | 489 kts | 28° |
| 2026-05-01 09:47 | -20.01992 | -41.64907 | 32371 ft | 489 kts | 28° |
| 2026-05-01 09:47 | -19.99021 | -41.63151 | 32568 ft | 488 kts | 28° |
| 2026-05-01 09:48 | -19.96050 | -41.61395 | 32755 ft | 488 kts | 28° |
| 2026-05-01 09:48 | -19.93078 | -41.59639 | 32932 ft | 488 kts | 28° |
| 2026-05-01 09:48 | -19.90109 | -41.57884 | 33106 ft | 488 kts | 28° |
| 2026-05-01 09:48 | -19.87139 | -41.56130 | 33290 ft | 488 kts | 28° |
| 2026-05-01 09:49 | -19.84204 | -41.54397 | 33439 ft | 489 kts | 28° |
| 2026-05-01 09:49 | -19.81230 | -41.52643 | 33579 ft | 490 kts | 28° |
| 2026-05-01 09:49 | -19.78248 | -41.50885 | 33762 ft | 490 kts | 28° |
| 2026-05-01 09:49 | -19.75272 | -41.49132 | 33966 ft | 489 kts | 28° |
| 2026-05-01 09:50 | -19.72298 | -41.47380 | 34147 ft | 489 kts | 28° |
| 2026-05-01 09:50 | -19.69320 | -41.45626 | 34284 ft | 489 kts | 28° |
| 2026-05-01 09:50 | -19.66340 | -41.43873 | 34439 ft | 488 kts | 28° |
| 2026-05-01 09:50 | -19.63378 | -41.42130 | 34625 ft | 487 kts | 28° |
| 2026-05-01 09:51 | -19.60408 | -41.40384 | 34812 ft | 486 kts | 28° |
| 2026-05-01 09:51 | -19.57450 | -41.38647 | 34972 ft | 485 kts | 28° |
| 2026-05-01 09:51 | -19.54494 | -41.36910 | 35114 ft | 485 kts | 28° |
| 2026-05-01 09:51 | -19.51548 | -41.35179 | 35151 ft | 486 kts | 28° |
| 2026-05-01 09:52 | -19.45652 | -41.31718 | 35159 ft | 487 kts | 28° |
| 2026-05-01 09:52 | -19.39725 | -41.28240 | 35149 ft | 487 kts | 28° |
| 2026-05-01 09:53 | -19.33798 | -41.24764 | 35150 ft | 487 kts | 28° |
| 2026-05-01 09:53 | -19.27871 | -41.21279 | 35153 ft | 486 kts | 29° |
| 2026-05-01 09:54 | -19.21984 | -41.17819 | 35148 ft | 485 kts | 29° |
| 2026-05-01 09:54 | -19.16086 | -41.14355 | 35150 ft | 485 kts | 29° |
| 2026-05-01 09:55 | -19.10180 | -41.10890 | 35158 ft | 484 kts | 29° |
| 2026-05-01 09:55 | -19.04288 | -41.07436 | 35148 ft | 484 kts | 29° |
| 2026-05-01 09:56 | -18.98442 | -41.04019 | 35151 ft | 483 kts | 29° |
| 2026-05-01 09:56 | -18.92584 | -41.00600 | 35146 ft | 483 kts | 29° |
| 2026-05-01 09:57 | -18.86696 | -40.97165 | 35162 ft | 483 kts | 29° |
| 2026-05-01 09:57 | -18.81185 | -40.93951 | 35148 ft | 483 kts | 29° |
| 2026-05-01 09:58 | -18.75297 | -40.90520 | 35158 ft | 483 kts | 29° |
| 2026-05-01 09:58 | -18.69414 | -40.87094 | 35153 ft | 483 kts | 29° |
| 2026-05-01 09:59 | -18.63518 | -40.83664 | 35156 ft | 483 kts | 29° |
| 2026-05-01 09:59 | -18.57613 | -40.80231 | 35144 ft | 485 kts | 29° |
| 2026-05-01 10:00 | -18.51704 | -40.76798 | 35148 ft | 484 kts | 29° |
| 2026-05-01 10:00 | -18.45804 | -40.73372 | 35148 ft | 484 kts | 29° |
| 2026-05-01 10:01 | -18.39942 | -40.69973 | 35144 ft | 484 kts | 29° |
| 2026-05-01 10:01 | -18.34036 | -40.66562 | 35132 ft | 483 kts | 29° |
| 2026-05-01 10:02 | -18.28134 | -40.63158 | 35144 ft | 483 kts | 29° |
| 2026-05-01 10:02 | -18.22242 | -40.59760 | 35140 ft | 483 kts | 29° |
| 2026-05-01 10:03 | -18.16377 | -40.56379 | 35143 ft | 482 kts | 30° |
| 2026-05-01 10:03 | -18.10490 | -40.52988 | 35138 ft | 482 kts | 30° |
| 2026-05-01 10:04 | -18.04602 | -40.49598 | 35140 ft | 482 kts | 30° |
| 2026-05-01 10:04 | -17.98723 | -40.46217 | 35140 ft | 482 kts | 30° |
| 2026-05-01 10:05 | -17.92841 | -40.42836 | 35140 ft | 482 kts | 30° |
| 2026-05-01 10:05 | -17.86960 | -40.39458 | 35136 ft | 481 kts | 30° |
| 2026-05-01 10:06 | -17.81115 | -40.36103 | 35134 ft | 481 kts | 30° |
| 2026-05-01 10:06 | -17.75188 | -40.32726 | 35134 ft | 481 kts | 29° |
| 2026-05-01 10:07 | -17.69286 | -40.29478 | 35136 ft | 481 kts | 28° |
| 2026-05-01 10:07 | -17.63348 | -40.26232 | 35132 ft | 481 kts | 29° |
| 2026-05-01 10:08 | -17.54485 | -40.21366 | 35135 ft | 480 kts | 29° |
| 2026-05-01 10:09 | -17.48564 | -40.18109 | 35135 ft | 480 kts | 29° |
| 2026-05-01 10:09 | -17.42632 | -40.14849 | 35135 ft | 480 kts | 29° |
| 2026-05-01 10:10 | -17.36720 | -40.11603 | 35134 ft | 479 kts | 29° |
| 2026-05-01 10:10 | -17.27895 | -40.06763 | 35137 ft | 479 kts | 29° |
| 2026-05-01 10:11 | -17.21991 | -40.03527 | 35140 ft | 479 kts | 29° |
| 2026-05-01 10:11 | -17.16081 | -40.00291 | 35137 ft | 479 kts | 29° |
| 2026-05-01 10:12 | -17.10175 | -39.97058 | 35136 ft | 479 kts | 29° |
| 2026-05-01 10:13 | -17.01345 | -39.92229 | 35141 ft | 479 kts | 29° |
| 2026-05-01 10:13 | -16.95438 | -39.89003 | 35133 ft | 479 kts | 29° |
| 2026-05-01 10:14 | -16.86586 | -39.84174 | 35132 ft | 478 kts | 29° |
| 2026-05-01 10:14 | -16.80690 | -39.80959 | 35132 ft | 478 kts | 29° |
| 2026-05-01 10:15 | -16.74787 | -39.77741 | 35137 ft | 478 kts | 29° |
| 2026-05-01 10:15 | -16.68916 | -39.74544 | 35115 ft | 478 kts | 29° |
| 2026-05-01 10:16 | -16.63018 | -39.71333 | 35133 ft | 478 kts | 29° |
| 2026-05-01 10:17 | -16.54165 | -39.66519 | 35124 ft | 477 kts | 29° |
| 2026-05-01 10:17 | -16.45327 | -39.61719 | 35126 ft | 477 kts | 29° |
| 2026-05-01 10:18 | -16.36505 | -39.56931 | 35120 ft | 476 kts | 29° |
| 2026-05-01 10:19 | -16.30656 | -39.53760 | 35120 ft | 476 kts | 29° |
| 2026-05-01 10:19 | -16.24777 | -39.50574 | 35115 ft | 476 kts | 29° |
| 2026-05-01 10:20 | -16.15970 | -39.45806 | 35114 ft | 476 kts | 29° |
| 2026-05-01 10:20 | -16.10085 | -39.42622 | 35117 ft | 476 kts | 29° |
| 2026-05-01 10:21 | -16.01302 | -39.37874 | 35110 ft | 476 kts | 29° |
| 2026-05-01 10:22 | -15.92482 | -39.33113 | 35107 ft | 476 kts | 28° |
| 2026-05-01 10:23 | -15.83656 | -39.28362 | 35115 ft | 476 kts | 29° |
| 2026-05-01 10:23 | -15.74862 | -39.23630 | 35107 ft | 476 kts | 29° |
| 2026-05-01 10:24 | -15.63082 | -39.17298 | 35105 ft | 476 kts | 29° |
| 2026-05-01 10:25 | -15.51413 | -39.11035 | 35081 ft | 458 kts | 29° |
| 2026-05-01 10:26 | -15.45737 | -39.07990 | 35114 ft | 461 kts | 29° |
| 2026-05-01 10:27 | -15.34192 | -39.01800 | 35113 ft | 472 kts | 30° |
| 2026-05-01 10:28 | -15.25425 | -38.97107 | 35098 ft | 477 kts | 30° |
| 2026-05-01 10:28 | -15.16558 | -38.92365 | 35093 ft | 479 kts | 30° |
| 2026-05-01 10:29 | -15.07670 | -38.87616 | 35090 ft | 478 kts | 30° |
| 2026-05-01 10:30 | -14.95850 | -38.81302 | 35078 ft | 477 kts | 30° |
| 2026-05-01 10:31 | -14.84116 | -38.75040 | 35080 ft | 475 kts | 30° |
| 2026-05-01 10:32 | -14.75314 | -38.70348 | 35085 ft | 473 kts | 30° |
| 2026-05-01 10:33 | -14.63649 | -38.64137 | 35083 ft | 472 kts | 30° |
| 2026-05-01 10:34 | -14.54885 | -38.59475 | 35066 ft | 472 kts | 30° |
| 2026-05-01 10:34 | -14.49037 | -38.56367 | 35071 ft | 473 kts | 30° |
| 2026-05-01 10:35 | -14.41228 | -38.52219 | 35078 ft | 475 kts | 30° |
| 2026-05-01 10:35 | -14.35333 | -38.49090 | 35081 ft | 476 kts | 30° |
| 2026-05-01 10:36 | -14.26469 | -38.44388 | 35075 ft | 478 kts | 30° |
| 2026-05-01 10:37 | -14.20572 | -38.41264 | 35070 ft | 479 kts | 30° |
| 2026-05-01 10:37 | -14.11654 | -38.36541 | 35062 ft | 480 kts | 30° |
| 2026-05-01 10:38 | -14.05705 | -38.33393 | 35065 ft | 480 kts | 30° |
| 2026-05-01 10:38 | -13.99763 | -38.30251 | 35066 ft | 480 kts | 30° |
| 2026-05-01 10:39 | -13.93824 | -38.27111 | 35068 ft | 479 kts | 30° |
| 2026-05-01 10:39 | -13.87899 | -38.23981 | 35066 ft | 479 kts | 30° |
| 2026-05-01 10:40 | -13.81968 | -38.20851 | 35061 ft | 478 kts | 30° |
| 2026-05-01 10:40 | -13.76066 | -38.17736 | 35062 ft | 478 kts | 30° |
| 2026-05-01 10:41 | -13.70189 | -38.14637 | 35061 ft | 477 kts | 30° |
| 2026-05-01 10:42 | -13.61612 | -38.10117 | 35064 ft | 477 kts | 30° |
| 2026-05-01 10:42 | -13.55703 | -38.07005 | 35062 ft | 477 kts | 30° |
| 2026-05-01 10:43 | -13.49813 | -38.03905 | 35063 ft | 477 kts | 30° |
| 2026-05-01 10:43 | -13.43908 | -38.00798 | 35057 ft | 477 kts | 30° |
| 2026-05-01 10:44 | -13.37992 | -37.97688 | 35057 ft | 477 kts | 30° |
| 2026-05-01 10:44 | -13.32075 | -37.94579 | 35068 ft | 477 kts | 30° |
| 2026-05-01 10:45 | -13.26203 | -37.91495 | 35063 ft | 477 kts | 29° |
| 2026-05-01 10:45 | -13.20290 | -37.88392 | 35059 ft | 478 kts | 29° |
| 2026-05-01 10:46 | -13.14376 | -37.85290 | 35056 ft | 478 kts | 29° |
| 2026-05-01 10:46 | -13.08445 | -37.82180 | 35056 ft | 478 kts | 29° |
| 2026-05-01 10:47 | -13.02525 | -37.79078 | 35057 ft | 478 kts | 29° |
| 2026-05-01 10:47 | -12.96601 | -37.75975 | 35057 ft | 478 kts | 29° |
| 2026-05-01 10:48 | -12.90697 | -37.72885 | 35058 ft | 478 kts | 29° |
| 2026-05-01 10:48 | -12.84765 | -37.69781 | 35058 ft | 478 kts | 29° |
| 2026-05-01 10:49 | -12.78835 | -37.66681 | 35059 ft | 478 kts | 29° |
| 2026-05-01 10:49 | -12.72947 | -37.63603 | 35059 ft | 478 kts | 29° |
| 2026-05-01 10:50 | -12.67017 | -37.60506 | 35058 ft | 478 kts | 29° |
| 2026-05-01 10:50 | -12.61084 | -37.57409 | 35058 ft | 478 kts | 29° |
| 2026-05-01 10:51 | -12.55162 | -37.54319 | 35058 ft | 478 kts | 29° |
| 2026-05-01 10:51 | -12.49241 | -37.51231 | 35053 ft | 478 kts | 29° |
| 2026-05-01 10:52 | -12.43316 | -37.48142 | 35056 ft | 478 kts | 29° |
| 2026-05-01 10:52 | -12.37388 | -37.45053 | 35057 ft | 478 kts | 28° |
| 2026-05-01 10:53 | -12.31498 | -37.41987 | 35053 ft | 478 kts | 28° |
| 2026-05-01 10:53 | -12.25570 | -37.38901 | 35053 ft | 477 kts | 28° |
| 2026-05-01 10:54 | -12.19640 | -37.35816 | 35058 ft | 477 kts | 28° |
| 2026-05-01 10:54 | -12.13708 | -37.32732 | 35055 ft | 477 kts | 28° |
| 2026-05-01 10:55 | -12.07786 | -37.29655 | 35051 ft | 477 kts | 28° |
| 2026-05-01 10:55 | -12.01899 | -37.26597 | 35054 ft | 477 kts | 28° |
| 2026-05-01 10:56 | -11.95984 | -37.23526 | 35060 ft | 477 kts | 28° |
| 2026-05-01 10:56 | -11.90055 | -37.20449 | 35056 ft | 477 kts | 28° |
| 2026-05-01 10:57 | -11.84127 | -37.17375 | 35052 ft | 477 kts | 28° |
| 2026-05-01 10:57 | -11.78202 | -37.14302 | 35055 ft | 478 kts | 28° |
| 2026-05-01 10:58 | -11.72269 | -37.11228 | 35051 ft | 478 kts | 28° |
| 2026-05-01 10:58 | -11.66375 | -37.08175 | 35053 ft | 478 kts | 27° |
| 2026-05-01 10:59 | -11.60440 | -37.05101 | 35053 ft | 478 kts | 27° |
| 2026-05-01 10:59 | -11.54491 | -37.02028 | 35048 ft | 479 kts | 27° |
| 2026-05-01 11:00 | -11.48543 | -36.98964 | 35048 ft | 479 kts | 27° |
| 2026-05-01 11:00 | -11.42590 | -36.95895 | 35054 ft | 479 kts | 26° |
| 2026-05-01 11:01 | -11.36650 | -36.92835 | 35043 ft | 478 kts | 26° |
| 2026-05-01 11:01 | -11.30743 | -36.89793 | 35043 ft | 477 kts | 26° |
| 2026-05-01 11:02 | -11.24826 | -36.86747 | 35041 ft | 476 kts | 26° |
| 2026-05-01 11:02 | -11.18917 | -36.83706 | 35042 ft | 475 kts | 26° |
| 2026-05-01 11:03 | -11.13021 | -36.80673 | 35042 ft | 474 kts | 26° |
| 2026-05-01 11:03 | -11.07164 | -36.77662 | 35039 ft | 473 kts | 26° |
| 2026-05-01 11:04 | -11.01286 | -36.74641 | 35043 ft | 473 kts | 26° |
| 2026-05-01 11:04 | -10.95417 | -36.71626 | 35047 ft | 472 kts | 26° |
| 2026-05-01 11:05 | -10.89562 | -36.68619 | 35047 ft | 471 kts | 26° |
| 2026-05-01 11:05 | -10.83713 | -36.65616 | 35046 ft | 470 kts | 25° |
| 2026-05-01 11:06 | -10.77865 | -36.62646 | 35048 ft | 469 kts | 26° |
| 2026-05-01 11:06 | -10.72058 | -36.59730 | 35045 ft | 468 kts | 25° |
| 2026-05-01 11:07 | -10.63307 | -36.55330 | 35044 ft | 467 kts | 25° |
| 2026-05-01 11:07 | -10.57481 | -36.52397 | 35043 ft | 467 kts | 25° |
| 2026-05-01 11:08 | -10.51651 | -36.49464 | 35042 ft | 467 kts | 25° |
| 2026-05-01 11:09 | -10.42904 | -36.45064 | 35041 ft | 467 kts | 25° |
| 2026-05-01 11:09 | -10.37068 | -36.42130 | 35039 ft | 467 kts | 25° |
| 2026-05-01 11:10 | -10.28366 | -36.37757 | 35049 ft | 467 kts | 24° |
| 2026-05-01 11:10 | -10.22541 | -36.34832 | 35048 ft | 467 kts | 24° |
| 2026-05-01 11:11 | -10.16719 | -36.31910 | 35053 ft | 466 kts | 24° |
| 2026-05-01 11:11 | -10.10898 | -36.28989 | 35049 ft | 466 kts | 24° |
| 2026-05-01 11:12 | -10.05091 | -36.26076 | 35048 ft | 465 kts | 24° |
| 2026-05-01 11:12 | -9.99291 | -36.23167 | 35044 ft | 464 kts | 24° |
| 2026-05-01 11:13 | -9.93516 | -36.20273 | 35043 ft | 463 kts | 24° |
| 2026-05-01 11:13 | -9.87787 | -36.17403 | 35056 ft | 461 kts | 24° |
| 2026-05-01 11:14 | -9.82036 | -36.14523 | 35044 ft | 460 kts | 24° |
| 2026-05-01 11:14 | -9.76290 | -36.11646 | 35060 ft | 459 kts | 24° |
| 2026-05-01 11:15 | -9.70566 | -36.08782 | 35048 ft | 458 kts | 24° |
| 2026-05-01 11:15 | -9.64848 | -36.05922 | 35047 ft | 458 kts | 24° |
| 2026-05-01 11:16 | -9.59136 | -36.03066 | 35044 ft | 458 kts | 24° |
| 2026-05-01 11:16 | -9.53420 | -36.00209 | 35040 ft | 458 kts | 24° |
| 2026-05-01 11:17 | -9.47744 | -35.97373 | 35038 ft | 458 kts | 24° |
| 2026-05-01 11:17 | -9.42026 | -35.94517 | 35036 ft | 459 kts | 24° |
| 2026-05-01 11:18 | -9.36294 | -35.91655 | 35042 ft | 459 kts | 24° |
| 2026-05-01 11:18 | -9.30528 | -35.88778 | 34505 ft | 469 kts | 25° |
| 2026-05-01 11:19 | -9.27604 | -35.87319 | 33926 ft | 467 kts | 25° |
| 2026-05-01 11:19 | -9.24678 | -35.85859 | 33107 ft | 470 kts | 25° |
| 2026-05-01 11:19 | -9.21739 | -35.84393 | 32402 ft | 472 kts | 25° |
| 2026-05-01 11:19 | -9.18802 | -35.82928 | 31778 ft | 471 kts | 26° |
| 2026-05-01 11:20 | -9.15846 | -35.81454 | 31016 ft | 474 kts | 26° |
| 2026-05-01 11:20 | -9.12877 | -35.79973 | 30195 ft | 479 kts | 27° |
| 2026-05-01 11:20 | -9.09862 | -35.78469 | 29209 ft | 485 kts | 27° |
| 2026-05-01 11:20 | -9.06821 | -35.76953 | 28272 ft | 488 kts | 27° |
| 2026-05-01 11:21 | -9.03766 | -35.75431 | 27341 ft | 490 kts | 27° |
| 2026-05-01 11:21 | -9.00873 | -35.73727 | 26670 ft | 484 kts | 40° |
| 2026-05-01 11:21 | -8.98410 | -35.71439 | 26035 ft | 478 kts | 46° |
| 2026-05-01 11:21 | -8.96047 | -35.69088 | 25343 ft | 475 kts | 46° |
| 2026-05-01 11:22 | -8.93703 | -35.66768 | 24677 ft | 466 kts | 46° |
| 2026-05-01 11:22 | -8.91394 | -35.64514 | 24018 ft | 457 kts | 46° |
| 2026-05-01 11:22 | -8.89113 | -35.62317 | 23322 ft | 448 kts | 46° |
| 2026-05-01 11:22 | -8.86875 | -35.60177 | 22624 ft | 438 kts | 46° |
| 2026-05-01 11:23 | -8.84682 | -35.58090 | 21985 ft | 428 kts | 46° |
| 2026-05-01 11:23 | -8.82526 | -35.56039 | 21375 ft | 424 kts | 46° |
| 2026-05-01 11:23 | -8.81107 | -35.54688 | 20968 ft | 423 kts | 46° |
| 2026-05-01 11:23 | -8.78245 | -35.51961 | 20159 ft | 421 kts | 46° |
| 2026-05-01 11:24 | -8.76833 | -35.50616 | 19722 ft | 421 kts | 46° |
| 2026-05-01 11:24 | -8.74709 | -35.48593 | 19110 ft | 419 kts | 46° |
| 2026-05-01 11:24 | -8.70468 | -35.44555 | 17816 ft | 417 kts | 46° |
| 2026-05-01 11:25 | -8.68363 | -35.42553 | 17146 ft | 413 kts | 46° |
| 2026-05-01 11:25 | -8.64279 | -35.38680 | 15933 ft | 392 kts | 45° |
| 2026-05-01 11:25 | -8.62322 | -35.36825 | 15367 ft | 391 kts | 45° |
| 2026-05-01 11:26 | -8.60343 | -35.34946 | 14769 ft | 390 kts | 45° |
| 2026-05-01 11:26 | -8.56395 | -35.31199 | 13560 ft | 388 kts | 45° |
| 2026-05-01 11:26 | -8.54429 | -35.29334 | 12933 ft | 386 kts | 45° |
| 2026-05-01 11:27 | -8.52478 | -35.27483 | 12330 ft | 384 kts | 45° |
| 2026-05-01 11:27 | -8.50538 | -35.25643 | 11767 ft | 376 kts | 45° |
| 2026-05-01 11:27 | -8.48660 | -35.23864 | 11215 ft | 363 kts | 45° |
| 2026-05-01 11:27 | -8.46873 | -35.22171 | 11090 ft | 341 kts | 46° |
| 2026-05-01 11:28 | -8.45212 | -35.20598 | 10937 ft | 322 kts | 45° |
| 2026-05-01 11:28 | -8.43623 | -35.19093 | 10795 ft | 306 kts | 46° |
| 2026-05-01 11:28 | -8.42097 | -35.17647 | 10680 ft | 297 kts | 46° |
| 2026-05-01 11:29 | -8.39097 | -35.14808 | 10471 ft | 297 kts | 46° |
| 2026-05-01 11:29 | -8.37593 | -35.13386 | 10346 ft | 294 kts | 46° |
| 2026-05-01 11:29 | -8.34677 | -35.10632 | 10075 ft | 279 kts | 46° |
| 2026-05-01 11:30 | -8.30367 | -35.06557 | 9187 ft | 276 kts | 46° |
| 2026-05-01 11:30 | -8.28977 | -35.05245 | 8936 ft | 274 kts | 45° |
| 2026-05-01 11:31 | -8.27379 | -35.04179 | 8613 ft | 279 kts | 25° |
| 2026-05-01 11:31 | -8.25523 | -35.03628 | 8283 ft | 277 kts | 17° |
| 2026-05-01 11:31 | -8.23670 | -35.03223 | 7971 ft | 267 kts | 16° |
| 2026-05-01 11:31 | -8.21911 | -35.02841 | 7699 ft | 257 kts | 17° |
| 2026-05-01 11:32 | -8.20205 | -35.02456 | 7427 ft | 247 kts | 17° |
| 2026-05-01 11:32 | -8.18569 | -35.02078 | 7192 ft | 236 kts | 18° |
| 2026-05-01 11:32 | -8.16937 | -35.01839 | 7024 ft | 245 kts | 359° |
| 2026-05-01 11:32 | -8.15250 | -35.02273 | 6735 ft | 251 kts | 345° |
| 2026-05-01 11:33 | -8.13588 | -35.02822 | 6465 ft | 252 kts | 346° |
| 2026-05-01 11:33 | -8.11921 | -35.03363 | 6184 ft | 249 kts | 346° |
| 2026-05-01 11:33 | -8.10302 | -35.03882 | 5916 ft | 245 kts | 346° |
| 2026-05-01 11:33 | -8.08689 | -35.04394 | 5658 ft | 241 kts | 346° |
| 2026-05-01 11:34 | -8.07089 | -35.04898 | 5423 ft | 241 kts | 346° |
| 2026-05-01 11:34 | -8.05489 | -35.05399 | 5177 ft | 240 kts | 346° |
| 2026-05-01 11:34 | -8.03889 | -35.05898 | 4942 ft | 241 kts | 347° |
| 2026-05-01 11:34 | -8.02287 | -35.06399 | 4696 ft | 242 kts | 346° |
| 2026-05-01 11:35 | -8.00657 | -35.06815 | 4378 ft | 241 kts | 1° |
| 2026-05-01 11:35 | -7.99092 | -35.06422 | 4080 ft | 228 kts | 38° |
| 2026-05-01 11:35 | -7.98015 | -35.05334 | 3841 ft | 213 kts | 61° |
| 2026-05-01 11:35 | -7.97431 | -35.04048 | 3747 ft | 195 kts | 76° |
| 2026-05-01 11:36 | -7.97021 | -35.02783 | 3537 ft | 188 kts | 76° |
| 2026-05-01 11:36 | -7.96624 | -35.01555 | 3339 ft | 181 kts | 76° |
| 2026-05-01 11:36 | -7.96235 | -35.00344 | 3169 ft | 182 kts | 77° |
| 2026-05-01 11:36 | -7.96207 | -34.99110 | 2991 ft | 174 kts | 109° |
| 2026-05-01 11:37 | -7.96752 | -34.98065 | 2866 ft | 167 kts | 137° |
| 2026-05-01 11:37 | -7.97756 | -34.97573 | 2722 ft | 159 kts | 153° |
| 2026-05-01 11:37 | -7.98733 | -34.97092 | 2534 ft | 153 kts | 147° |
| 2026-05-01 11:37 | -7.99690 | -34.96616 | 2318 ft | 154 kts | 158° |
| 2026-05-01 11:38 | -8.00703 | -34.96294 | 2141 ft | 155 kts | 156° |
| 2026-05-01 11:38 | -8.01783 | -34.95938 | 1955 ft | 165 kts | 159° |
| 2026-05-01 11:38 | -8.02848 | -34.95578 | 1715 ft | 158 kts | 160° |
| 2026-05-01 11:38 | -8.03861 | -34.95240 | 1492 ft | 150 kts | 162° |
| 2026-05-01 11:39 | -8.04805 | -34.94953 | 1317 ft | 137 kts | 156° |
| 2026-05-01 11:39 | -8.05674 | -34.94629 | 1154 ft | 135 kts | 160° |
| 2026-05-01 11:39 | -8.06563 | -34.94338 | 975 ft | 132 kts | 159° |
| 2026-05-01 11:39 | -8.07437 | -34.94048 | 837 ft | 134 kts | 160° |
| 2026-05-01 11:40 | -8.08351 | -34.93737 | 648 ft | 143 kts | 167° |
| 2026-05-01 11:40 | -8.09279 | -34.93699 | 420 ft | 121 kts | 160° |
| 2026-05-01 11:40 | -8.10015 | -34.93160 | 163 ft | 136 kts | 140° |
| 2026-05-01 11:40 | -8.10834 | -34.92635 | 117 ft | 147 kts | 155° |